Time,TemperatureF,DewpointF,PressureIn,WindDirection,WindDirectionDegrees,WindSpeedMPH,WindSpeedGustMPH,Humidity,HourlyPrecipIn,Conditions,Clouds,dailyrainin,SoftwareType,DateUTC
2013-01-20 00:22:00,56.0,29.0,30.11,West,260,4.0,-999.0,35,0.00,,,-99.99,,2013-01-20 08:22:00,
2013-01-20 00:32:00,56.0,29.0,30.11,West,260,4.0,-999.0,35,0.00,,,-99.99,,2013-01-20 08:32:00,
2013-01-20 00:42:00,56.0,29.0,30.11,West,260,4.0,-999.0,35,0.00,,,-99.99,,2013-01-20 08:42:00,
2013-01-20 01:22:00,56.0,29.0,30.10,North,0,0.0,-999.0,36,0.00,,,-99.99,,2013-01-20 09:22:00,
2013-01-20 01:33:00,56.0,29.0,30.10,North,0,0.0,-999.0,36,0.00,,,-99.99,,2013-01-20 09:33:00,
2013-01-20 01:42:00,56.0,29.0,30.10,North,0,0.0,-999.0,36,0.00,,,-99.99,,2013-01-20 09:42:00,
2013-01-20 02:22:00,51.0,33.0,30.10,West,260,3.0,-999.0,50,0.00,,,-99.99,,2013-01-20 10:22:00,
2013-01-20 02:32:00,51.0,33.0,30.10,West,260,3.0,-999.0,50,0.00,,,-99.99,,2013-01-20 10:32:00,
2013-01-20 02:42:00,51.0,33.0,30.10,West,260,3.0,-999.0,50,0.00,,,-99.99,,2013-01-20 10:42:00,
2013-01-20 03:22:00,51.0,30.0,30.09,West,260,2.0,-999.0,45,0.00,,,-99.99,,2013-01-20 11:22:00,
2013-01-20 03:32:00,51.0,30.0,30.09,West,260,2.0,-999.0,45,0.00,,,-99.99,,2013-01-20 11:32:00,
2013-01-20 03:42:00,51.0,30.0,30.09,West,260,2.0,-999.0,45,0.00,,,-99.99,,2013-01-20 11:42:00,
2013-01-20 04:22:00,52.0,31.0,30.08,West,260,2.0,-999.0,44,0.00,,,-99.99,,2013-01-20 12:22:00,
2013-01-20 04:33:00,52.0,31.0,30.08,West,260,2.0,-999.0,44,0.00,,,-99.99,,2013-01-20 12:33:00,
2013-01-20 04:43:00,52.0,31.0,30.08,West,260,2.0,-999.0,44,0.00,,,-99.99,,2013-01-20 12:43:00,
2013-01-20 05:23:00,53.0,29.0,30.07,North,0,0.0,-999.0,40,0.00,,,-99.99,,2013-01-20 13:23:00,
2013-01-20 05:33:00,53.0,29.0,30.07,North,0,0.0,-999.0,40,0.00,,,-99.99,,2013-01-20 13:33:00,
2013-01-20 05:42:00,53.0,29.0,30.07,North,0,0.0,-999.0,40,0.00,,,-99.99,,2013-01-20 13:42:00,
2013-01-20 06:22:00,54.0,30.0,30.09,North,0,0.0,-999.0,39,0.00,,,-99.99,,2013-01-20 14:22:00,
2013-01-20 06:32:00,54.0,30.0,30.09,North,0,0.0,-999.0,39,0.00,,,-99.99,,2013-01-20 14:32:00,
2013-01-20 06:42:00,54.0,30.0,30.09,North,0,0.0,-999.0,39,0.00,,,-99.99,,2013-01-20 14:42:00,
2013-01-20 07:23:00,50.0,31.0,30.09,North,0,0.0,-999.0,47,0.00,,,-99.99,,2013-01-20 15:23:00,
2013-01-20 07:33:00,50.0,31.0,30.09,North,0,0.0,-999.0,47,0.00,,,-99.99,,2013-01-20 15:33:00,
2013-01-20 07:42:00,50.0,31.0,30.09,North,0,0.0,-999.0,47,0.00,,,-99.99,,2013-01-20 15:42:00,
2013-01-20 08:23:00,54.0,28.0,30.10,WNW,300,3.0,-999.0,36,0.00,,,-99.99,,2013-01-20 16:23:00,
2013-01-20 08:33:00,54.0,28.0,30.10,WNW,300,3.0,-999.0,36,0.00,,,-99.99,,2013-01-20 16:33:00,
2013-01-20 08:42:00,54.0,28.0,30.10,WNW,300,3.0,-999.0,36,0.00,,,-99.99,,2013-01-20 16:42:00,
2013-01-20 09:22:00,58.0,37.0,30.10,North,0,0.0,-999.0,46,0.00,,,-99.99,,2013-01-20 17:22:00,
2013-01-20 09:32:00,58.0,37.0,30.10,North,0,0.0,-999.0,46,0.00,,,-99.99,,2013-01-20 17:32:00,
2013-01-20 09:42:00,58.0,37.0,30.10,North,0,0.0,-999.0,46,0.00,,,-99.99,,2013-01-20 17:42:00,
2013-01-20 10:23:00,61.0,42.0,30.12,West,270,3.0,-999.0,50,0.00,,,-99.99,,2013-01-20 18:23:00,
2013-01-20 10:33:00,61.0,42.0,30.12,West,270,3.0,-999.0,50,0.00,,,-99.99,,2013-01-20 18:33:00,
2013-01-20 10:42:00,61.0,42.0,30.12,West,270,3.0,-999.0,50,0.00,,,-99.99,,2013-01-20 18:42:00,
2013-01-20 11:22:00,65.0,41.0,30.10,WSW,240,2.0,-999.0,42,0.00,,,-99.99,,2013-01-20 19:22:00,
2013-01-20 11:33:00,65.0,41.0,30.10,WSW,240,2.0,-999.0,42,0.00,,,-99.99,,2013-01-20 19:33:00,
2013-01-20 11:42:00,65.0,41.0,30.10,WSW,240,2.0,-999.0,42,0.00,,,-99.99,,2013-01-20 19:42:00,
2013-01-20 12:22:00,67.0,43.0,30.06,North,0,0.0,-999.0,42,0.00,,,-99.99,,2013-01-20 20:22:00,
2013-01-20 12:33:00,67.0,43.0,30.06,North,0,0.0,-999.0,42,0.00,,,-99.99,,2013-01-20 20:33:00,
2013-01-20 13:22:00,66.0,39.0,30.01,NW,320,10.0,-999.0,37,0.00,,,-99.99,,2013-01-20 21:22:00,
2013-01-20 13:33:00,66.0,39.0,30.01,NW,320,10.0,-999.0,37,0.00,,,-99.99,,2013-01-20 21:33:00,
2013-01-20 14:22:00,67.0,38.0,29.99,NNW,330,10.0,-999.0,35,0.00,,,-99.99,,2013-01-20 22:22:00,
2013-01-20 14:33:00,67.0,38.0,29.99,NNW,330,10.0,-999.0,35,0.00,,,-99.99,,2013-01-20 22:33:00,
2013-01-20 14:43:00,67.0,38.0,29.99,NNW,330,10.0,-999.0,35,0.00,,,-99.99,,2013-01-20 22:43:00,
2013-01-20 15:23:00,66.0,42.0,29.99,NNW,330,11.0,-999.0,41,0.00,,,-99.99,,2013-01-20 23:23:00,
2013-01-20 15:33:00,66.0,42.0,29.99,NNW,330,11.0,-999.0,41,0.00,,,-99.99,,2013-01-20 23:33:00,
2013-01-20 16:22:00,65.0,36.0,29.98,North,350,10.0,-999.0,34,0.00,,,-99.99,,2013-01-21 00:22:00,
2013-01-20 16:33:00,65.0,36.0,29.98,North,350,10.0,-999.0,34,0.00,,,-99.99,,2013-01-21 00:33:00,
2013-01-20 16:42:00,65.0,36.0,29.98,North,350,10.0,-999.0,34,0.00,,,-99.99,,2013-01-21 00:42:00,
2013-01-20 17:22:00,67.0,33.0,29.99,West,280,9.0,-999.0,28,0.00,,,-99.99,,2013-01-21 01:22:00,
2013-01-20 17:32:00,67.0,33.0,29.99,West,280,9.0,-999.0,28,0.00,,,-99.99,,2013-01-21 01:32:00,
2013-01-20 17:43:00,67.0,33.0,29.99,West,280,9.0,-999.0,28,0.00,,,-99.99,,2013-01-21 01:43:00,
2013-01-20 18:23:00,64.0,37.0,30.00,NNW,340,10.0,-999.0,37,0.00,,,-99.99,,2013-01-21 02:23:00,
2013-01-20 18:33:00,64.0,37.0,30.00,NNW,340,10.0,-999.0,37,0.00,,,-99.99,,2013-01-21 02:33:00,
2013-01-20 18:42:00,64.0,37.0,30.00,NNW,340,10.0,-999.0,37,0.00,,,-99.99,,2013-01-21 02:42:00,
2013-01-20 19:23:00,62.0,44.0,30.02,NW,320,14.0,-999.0,52,0.00,,,-99.99,,2013-01-21 03:23:00,
2013-01-20 19:33:00,62.0,44.0,30.02,NW,320,14.0,-999.0,52,0.00,,,-99.99,,2013-01-21 03:33:00,
2013-01-20 20:23:00,59.0,44.0,30.04,North,0,0.0,-999.0,57,0.00,,,-99.99,,2013-01-21 04:23:00,
2013-01-20 20:32:00,59.0,44.0,30.04,North,0,0.0,-999.0,57,0.00,,,-99.99,,2013-01-21 04:32:00,
2013-01-20 21:22:00,57.0,43.0,30.05,North,0,0.0,-999.0,59,0.00,,,-99.99,,2013-01-21 05:22:00,
2013-01-20 21:33:00,57.0,43.0,30.05,North,0,0.0,-999.0,59,0.00,,,-99.99,,2013-01-21 05:33:00,
2013-01-20 22:23:00,56.0,37.0,30.06,North,0,0.0,-999.0,49,0.00,,,-99.99,,2013-01-21 06:23:00,
2013-01-20 22:33:00,56.0,37.0,30.06,North,0,0.0,-999.0,49,0.00,,,-99.99,,2013-01-21 06:33:00,
2013-01-20 22:43:00,56.0,37.0,30.06,North,0,0.0,-999.0,49,0.00,,,-99.99,,2013-01-21 06:43:00,
2013-01-20 23:22:00,55.0,38.0,30.06,WNW,290,3.0,-999.0,52,0.00,,,-99.99,,2013-01-21 07:22:00,
2013-01-20 23:33:00,55.0,38.0,30.06,WNW,290,3.0,-999.0,52,0.00,,,-99.99,,2013-01-21 07:33:00,